Time;durP1;ratioP1;P1;durP2;ratioP2;P2;SDS_P1;SDS_P2;PMS_P1;PMS_P2;Temp;Humidity;BMP_temperature;BMP_pressure;BME280_temperature;BME280_humidity;BME280_pressure;Samples;Min_cycle;Max_cycle;Signal;HPM_P1;HPM_P2
2022/06/24 00:00:31;;;;;;;;;;;22.30;99.90;;;;;;4966493;28;20263;-65
2022/06/24 00:02:58;;;;;;;;;;;22.30;99.90;;;;;;4970163;28;20575;-65
2022/06/24 00:05:28;;;;;;;;;;;22.20;99.90;;;;;;4970460;28;20570;-65
2022/06/24 00:07:56;;;;;;;;;;;22.10;99.90;;;;;;4974118;28;20321;-65
2022/06/24 00:10:25;;;;;;;;;;;22.10;99.90;;;;;;4992192;28;20671;-65
2022/06/24 00:12:55;;;;;;;;;;;22.10;99.90;;;;;;4972417;28;20650;-64
2022/06/24 00:15:26;;;;;;;;;;;22.00;99.90;;;;;;4973415;28;20279;-62
2022/06/24 00:17:53;;;;;;;;;;;22.00;99.90;;;;;;4972046;28;20279;-63
2022/06/24 00:20:22;;;;;;;;;;;22.00;99.90;;;;;;4972555;28;20290;-62
2022/06/24 00:22:51;;;;;;;;;;;21.90;99.90;;;;;;4969700;28;20266;-62
2022/06/24 00:25:20;;;;;;;;;;;21.80;99.90;;;;;;4975644;28;20214;-63
2022/06/24 00:28:03;;;;;;;;;;;21.70;99.90;;;;;;4969565;28;20215;-63
2022/06/24 00:30:35;;;;;;;;;;;21.70;99.90;;;;;;4974627;28;20693;-63
2022/06/24 00:33:11;;;;;;;;;;;21.70;99.90;;;;;;4973076;28;20553;-63
2022/06/24 00:35:39;;;;;;;;;;;21.70;99.90;;;;;;4975710;28;20203;-63
2022/06/24 00:38:23;;;;;;;;;;;21.60;99.90;;;;;;4972654;28;20626;-63
2022/06/24 00:40:53;;;;;;;;;;;21.60;99.90;;;;;;4974282;28;20191;-63
2022/06/24 00:43:25;;;;;;;;;;;21.60;99.90;;;;;;4971320;28;20279;-63
2022/06/24 00:45:54;;;;;;;;;;;21.50;99.90;;;;;;4971551;28;20200;-63
2022/06/24 00:48:22;;;;;;;;;;;21.50;99.90;;;;;;4971383;28;20235;-63
2022/06/24 00:50:50;;;;;;;;;;;21.30;99.90;;;;;;4973805;28;20200;-63
2022/06/24 00:53:18;;;;;;;;;;;21.30;99.90;;;;;;4970751;28;20208;-63
2022/06/24 00:55:46;;;;;;;;;;;21.20;99.90;;;;;;4970663;28;20227;-63
2022/06/24 00:58:15;;;;;;;;;;;21.10;99.90;;;;;;4970965;28;20194;-63
2022/06/24 01:00:45;;;;;;;;;;;21.10;99.90;;;;;;4971738;28;20492;-63
2022/06/24 01:03:14;;;;;;;;;;;21.10;99.90;;;;;;4971679;28;20192;-63
2022/06/24 01:05:42;;;;;;;;;;;21.00;99.90;;;;;;4975447;28;20200;-63
2022/06/24 01:08:11;;;;;;;;;;;21.00;99.90;;;;;;4974861;28;20188;-63
2022/06/24 01:10:39;;;;;;;;;;;20.90;99.90;;;;;;4971882;28;20278;-63
2022/06/24 01:13:08;;;;;;;;;;;20.80;99.90;;;;;;4979084;28;20214;-63
2022/06/24 01:15:35;;;;;;;;;;;20.70;99.90;;;;;;4978742;28;20287;-63
2022/06/24 01:18:05;;;;;;;;;;;20.60;99.90;;;;;;4976806;28;20578;-63
2022/06/24 01:20:33;;;;;;;;;;;20.60;99.90;;;;;;4975390;28;20203;-64
2022/06/24 01:23:02;;;;;;;;;;;20.60;99.90;;;;;;4972373;28;20219;-64
2022/06/24 01:25:30;;;;;;;;;;;20.60;99.90;;;;;;4976353;28;20188;-63
2022/06/24 01:27:59;;;;;;;;;;;20.60;99.90;;;;;;4974575;28;20297;-63
2022/06/24 01:30:27;;;;;;;;;;;20.70;99.90;;;;;;4974476;28;20192;-63
2022/06/24 01:32:55;;;;;;;;;;;20.60;99.90;;;;;;4978169;28;20287;-63
2022/06/24 01:35:23;;;;;;;;;;;20.60;99.90;;;;;;4976856;28;20250;-63
2022/06/24 01:37:51;;;;;;;;;;;20.70;99.90;;;;;;4976791;28;20216;-63
2022/06/24 01:40:20;;;;;;;;;;;20.80;99.90;;;;;;4975514;28;20610;-63
2022/06/24 01:42:47;;;;;;;;;;;20.60;99.90;;;;;;4971527;28;20251;-63
2022/06/24 01:45:15;;;;;;;;;;;20.60;99.90;;;;;;4977079;28;20247;-63
2022/06/24 01:47:43;;;;;;;;;;;20.70;99.90;;;;;;4974675;28;20282;-63
2022/06/24 01:50:10;;;;;;;;;;;20.60;99.90;;;;;;4973038;28;20224;-63
2022/06/24 01:52:38;;;;;;;;;;;20.50;99.90;;;;;;4972659;28;20254;-63
2022/06/24 01:55:06;;;;;;;;;;;20.40;99.90;;;;;;4977807;28;20220;-64
2022/06/24 01:57:35;;;;;;;;;;;20.40;99.90;;;;;;4973423;28;20196;-63
2022/06/24 02:00:04;;;;;;;;;;;20.30;99.90;;;;;;4973128;28;20207;-63
2022/06/24 02:02:33;;;;;;;;;;;20.30;99.90;;;;;;4975122;28;20247;-63
2022/06/24 02:05:02;;;;;;;;;;;20.30;99.90;;;;;;4976377;28;20192;-63
2022/06/24 02:07:29;;;;;;;;;;;20.20;99.90;;;;;;4973935;28;20259;-63
2022/06/24 02:15:29;;;;;;;;;;;20.30;99.90;;;;;;4972813;28;20199;-63
2022/06/24 02:17:57;;;;;;;;;;;20.30;99.90;;;;;;4972664;28;20200;-64
2022/06/24 02:20:24;;;;;;;;;;;20.30;99.90;;;;;;4974699;28;20246;-64
2022/06/24 02:22:52;;;;;;;;;;;20.30;99.90;;;;;;4977075;28;20184;-64
2022/06/24 02:25:20;;;;;;;;;;;20.30;99.90;;;;;;4975230;28;20602;-64
2022/06/24 02:27:49;;;;;;;;;;;20.20;99.90;;;;;;4970240;28;20316;-64
2022/06/24 02:30:17;;;;;;;;;;;20.20;99.90;;;;;;4975352;28;20276;-64
2022/06/24 02:32:44;;;;;;;;;;;20.10;99.90;;;;;;4972745;28;20192;-63
2022/06/24 02:35:12;;;;;;;;;;;20.10;99.90;;;;;;4974007;28;20199;-63
2022/06/24 02:37:40;;;;;;;;;;;20.00;99.90;;;;;;4979024;28;20247;-63
2022/06/24 02:42:56;;;;;;;;;;;20.00;99.90;;;;;;4970307;28;20204;-63
2022/06/24 02:45:24;;;;;;;;;;;20.00;99.90;;;;;;4978926;28;20629;-63
2022/06/24 02:47:51;;;;;;;;;;;20.00;99.90;;;;;;4977538;28;20247;-63
2022/06/24 02:50:19;;;;;;;;;;;19.90;99.90;;;;;;4973172;28;20239;-63
2022/06/24 02:52:47;;;;;;;;;;;19.90;99.90;;;;;;4979662;28;20204;-63
2022/06/24 02:55:15;;;;;;;;;;;19.90;99.90;;;;;;4970363;28;20192;-64
2022/06/24 02:57:43;;;;;;;;;;;19.80;99.90;;;;;;4970875;28;20228;-66
2022/06/24 03:00:13;;;;;;;;;;;19.90;99.90;;;;;;4972879;28;20654;-66
2022/06/24 03:02:40;;;;;;;;;;;19.90;99.90;;;;;;4971794;28;20242;-66
2022/06/24 03:05:12;;;;;;;;;;;19.90;99.90;;;;;;4974595;28;20236;-66
2022/06/24 03:07:39;;;;;;;;;;;19.90;99.90;;;;;;4970645;28;20576;-66
2022/06/24 03:10:08;;;;;;;;;;;19.90;99.90;;;;;;4978527;28;20192;-66
2022/06/24 03:12:35;;;;;;;;;;;19.80;99.90;;;;;;4970664;28;20696;-67
2022/06/24 03:15:03;;;;;;;;;;;19.90;99.90;;;;;;4974331;28;20232;-65
2022/06/24 03:17:32;;;;;;;;;;;19.90;99.90;;;;;;4974178;28;20208;-65
2022/06/24 03:20:00;;;;;;;;;;;19.90;99.90;;;;;;4980107;28;20236;-65
2022/06/24 03:22:28;;;;;;;;;;;19.90;99.90;;;;;;4965864;28;20659;-65
2022/06/24 03:24:56;;;;;;;;;;;20.00;99.90;;;;;;4968198;28;20200;-65
2022/06/24 03:27:24;;;;;;;;;;;20.00;99.90;;;;;;4974928;28;20283;-65
2022/06/24 03:29:51;;;;;;;;;;;20.00;99.90;;;;;;4977621;28;20287;-67
2022/06/24 03:32:19;;;;;;;;;;;20.00;99.90;;;;;;4972685;28;20286;-66
2022/06/24 03:34:48;;;;;;;;;;;20.00;99.90;;;;;;4972302;28;21521;-67
2022/06/24 03:37:16;;;;;;;;;;;20.00;99.90;;;;;;4968552;28;20279;-67
2022/06/24 03:39:44;;;;;;;;;;;20.10;99.90;;;;;;4965810;28;20223;-67
2022/06/24 03:42:12;;;;;;;;;;;20.10;99.90;;;;;;4965446;28;20295;-66
2022/06/24 03:44:39;;;;;;;;;;;20.10;99.90;;;;;;4965438;28;20274;-66
2022/06/24 03:47:12;;;;;;;;;;;20.20;99.90;;;;;;4961274;28;20200;-66
2022/06/24 03:49:40;;;;;;;;;;;20.00;99.90;;;;;;4961048;28;20204;-66
2022/06/24 03:52:09;;;;;;;;;;;20.00;99.90;;;;;;4961625;28;20717;-66
2022/06/24 03:54:37;;;;;;;;;;;19.90;99.90;;;;;;4962244;28;20194;-65
2022/06/24 03:57:05;;;;;;;;;;;19.80;99.90;;;;;;4973597;28;20609;-65
2022/06/24 03:59:33;;;;;;;;;;;19.80;99.90;;;;;;4973709;28;20195;-66
2022/06/24 04:02:01;;;;;;;;;;;19.70;99.90;;;;;;4975479;28;20610;-65
2022/06/24 04:04:28;;;;;;;;;;;19.60;99.90;;;;;;4973065;28;20270;-65
2022/06/24 04:06:56;;;;;;;;;;;19.60;99.90;;;;;;4969976;28;21884;-64
2022/06/24 04:09:25;;;;;;;;;;;19.50;99.90;;;;;;4972079;28;20228;-64
2022/06/24 04:11:53;;;;;;;;;;;19.40;99.90;;;;;;4971664;28;20280;-64
2022/06/24 04:17:03;;;;;;;;;;;19.20;99.90;;;;;;4969175;28;20203;-64
2022/06/24 04:19:31;;;;;;;;;;;19.20;99.90;;;;;;4971133;28;20267;-64
2022/06/24 04:21:58;;;;;;;;;;;19.30;99.90;;;;;;4970254;28;20232;-64
2022/06/24 04:24:27;;;;;;;;;;;19.20;99.90;;;;;;4956805;28;20291;-64
2022/06/24 04:26:55;;;;;;;;;;;19.30;99.90;;;;;;4946120;28;20260;-64
2022/06/24 04:29:23;;;;;;;;;;;19.30;99.90;;;;;;4946030;28;20266;-64
2022/06/24 04:31:51;;;;;;;;;;;19.30;99.90;;;;;;4944083;28;20201;-64
2022/06/24 04:34:24;;;;;;;;;;;19.20;99.90;;;;;;4942533;28;20208;-64
2022/06/24 04:36:52;;;;;;;;;;;19.30;99.90;;;;;;4944611;28;20343;-65
2022/06/24 04:39:20;;;;;;;;;;;19.40;99.90;;;;;;4946570;28;20208;-64
2022/06/24 04:41:49;;;;;;;;;;;19.20;99.90;;;;;;4944556;28;20620;-65
2022/06/24 04:44:16;;;;;;;;;;;19.20;99.90;;;;;;4942054;28;20231;-64
2022/06/24 04:46:44;;;;;;;;;;;19.20;99.90;;;;;;4941801;28;20218;-64
2022/06/24 04:49:12;;;;;;;;;;;19.20;99.90;;;;;;4945468;28;20590;-65
2022/06/24 04:51:39;;;;;;;;;;;19.20;99.90;;;;;;4943179;28;20207;-64
2022/06/24 04:54:07;;;;;;;;;;;19.20;99.90;;;;;;4944065;28;20851;-65
2022/06/24 04:56:35;;;;;;;;;;;19.20;99.90;;;;;;4946391;28;20296;-65
2022/06/24 04:59:04;;;;;;;;;;;19.20;99.90;;;;;;4944163;28;21063;-65
2022/06/24 05:01:33;;;;;;;;;;;19.30;99.90;;;;;;4943833;28;20385;-65
2022/06/24 05:04:01;;;;;;;;;;;19.40;99.90;;;;;;4943951;28;20192;-65
2022/06/24 05:06:29;;;;;;;;;;;19.30;99.90;;;;;;4943411;28;20214;-65
2022/06/24 05:08:56;;;;;;;;;;;19.20;99.90;;;;;;4947497;28;20686;-65
2022/06/24 05:11:24;;;;;;;;;;;19.30;99.90;;;;;;4943542;28;20283;-64
2022/06/24 05:13:52;;;;;;;;;;;19.40;99.90;;;;;;4939896;28;20208;-65
2022/06/24 05:16:21;;;;;;;;;;;19.40;99.90;;;;;;4942294;28;21274;-64
2022/06/24 05:19:06;;;;;;;;;;;19.30;99.90;;;;;;4954514;28;20204;-65
2022/06/24 05:21:33;;;;;;;;;;;19.40;99.90;;;;;;4955067;28;20271;-66
2022/06/24 05:24:01;;;;;;;;;;;19.40;99.90;;;;;;4953635;28;20211;-65
2022/06/24 05:26:29;;;;;;;;;;;19.30;99.90;;;;;;4949415;28;20311;-66
2022/06/24 05:28:57;;;;;;;;;;;19.30;99.90;;;;;;4955416;28;20208;-65
2022/06/24 05:31:26;;;;;;;;;;;19.40;99.90;;;;;;4955855;28;20302;-64
2022/06/24 05:33:54;;;;;;;;;;;19.40;99.90;;;;;;4949888;28;20220;-64
2022/06/24 05:36:22;;;;;;;;;;;19.40;99.90;;;;;;4953307;28;20287;-64
2022/06/24 05:38:50;;;;;;;;;;;19.50;99.90;;;;;;4952077;28;20294;-64
2022/06/24 05:41:18;;;;;;;;;;;19.40;99.90;;;;;;4954023;28;20758;-64
2022/06/24 05:43:47;;;;;;;;;;;19.40;99.90;;;;;;4951963;28;20613;-65
2022/06/24 05:46:15;;;;;;;;;;;19.40;99.90;;;;;;4952145;28;20208;-65
2022/06/24 05:48:44;;;;;;;;;;;19.40;99.90;;;;;;4951319;28;20295;-65
2022/06/24 05:51:12;;;;;;;;;;;19.40;99.90;;;;;;4954302;28;20247;-65
2022/06/24 05:56:26;;;;;;;;;;;19.60;99.90;;;;;;4951041;28;20243;-64
2022/06/24 05:58:53;;;;;;;;;;;19.60;99.90;;;;;;4955910;28;20815;-65
2022/06/24 06:01:21;;;;;;;;;;;19.50;99.90;;;;;;4956739;28;20286;-65
2022/06/24 06:03:51;;;;;;;;;;;19.50;99.90;;;;;;4955433;28;20326;-65
2022/06/24 06:06:18;;;;;;;;;;;19.50;99.90;;;;;;4951906;28;20200;-65
2022/06/24 06:08:46;;;;;;;;;;;19.40;99.90;;;;;;4955988;28;20274;-65
2022/06/24 06:11:14;;;;;;;;;;;19.40;99.90;;;;;;4965076;28;20291;-65
2022/06/24 06:13:43;;;;;;;;;;;19.40;99.90;;;;;;4978384;28;20262;-65
2022/06/24 06:16:10;;;;;;;;;;;19.40;99.90;;;;;;4978389;28;20254;-64
2022/06/24 06:18:39;;;;;;;;;;;19.50;99.90;;;;;;4983457;28;20664;-65
2022/06/24 06:21:09;;;;;;;;;;;19.50;99.90;;;;;;5001503;28;20195;-64
2022/06/24 06:23:38;;;;;;;;;;;19.60;99.90;;;;;;4991922;28;20242;-64
2022/06/24 06:26:06;;;;;;;;;;;19.50;99.90;;;;;;4994981;28;20278;-65
2022/06/24 06:28:34;;;;;;;;;;;19.50;99.90;;;;;;4997385;28;20196;-65
2022/06/24 06:31:02;;;;;;;;;;;19.50;99.90;;;;;;4987468;28;20265;-65
2022/06/24 06:33:31;;;;;;;;;;;19.50;99.90;;;;;;4988611;28;20210;-65
2022/06/24 06:36:02;;;;;;;;;;;19.60;99.90;;;;;;4996350;28;20231;-65
2022/06/24 06:38:32;;;;;;;;;;;19.50;99.90;;;;;;4997499;28;20207;-65
2022/06/24 06:41:00;;;;;;;;;;;19.50;99.90;;;;;;4994976;28;20677;-65
2022/06/24 06:43:28;;;;;;;;;;;19.70;99.90;;;;;;4993923;28;20700;-65
2022/06/24 06:45:56;;;;;;;;;;;19.80;99.90;;;;;;4995000;28;20227;-65
2022/06/24 06:48:24;;;;;;;;;;;19.80;99.90;;;;;;4998528;28;20203;-65
2022/06/24 06:50:55;;;;;;;;;;;20.00;99.90;;;;;;4992678;28;20267;-65
2022/06/24 06:53:23;;;;;;;;;;;20.20;99.90;;;;;;4993884;28;20635;-65
2022/06/24 06:55:52;;;;;;;;;;;20.40;99.90;;;;;;4994573;28;20250;-66
2022/06/24 06:58:21;;;;;;;;;;;20.60;99.90;;;;;;4994601;28;20203;-65
2022/06/24 07:00:49;;;;;;;;;;;20.70;99.90;;;;;;4994609;28;20250;-65
2022/06/24 07:03:17;;;;;;;;;;;20.70;99.90;;;;;;4993559;28;20271;-65
2022/06/24 07:05:45;;;;;;;;;;;20.80;99.90;;;;;;4994473;28;20203;-65
2022/06/24 07:08:13;;;;;;;;;;;20.80;99.90;;;;;;4993721;28;20227;-65
2022/06/24 07:10:41;;;;;;;;;;;21.00;99.90;;;;;;4994336;28;20238;-65
2022/06/24 07:13:10;;;;;;;;;;;21.10;99.90;;;;;;4993478;28;20219;-65
2022/06/24 07:15:38;;;;;;;;;;;21.30;99.90;;;;;;4994379;28;20593;-66
2022/06/24 07:18:06;;;;;;;;;;;21.20;99.90;;;;;;4984762;28;20827;-66
2022/06/24 07:20:34;;;;;;;;;;;21.00;99.90;;;;;;4973599;28;20196;-66
2022/06/24 07:23:02;;;;;;;;;;;20.90;99.90;;;;;;4992448;28;20235;-65
2022/06/24 07:25:30;;;;;;;;;;;20.80;99.90;;;;;;4993765;28;20222;-66
2022/06/24 07:27:59;;;;;;;;;;;20.70;99.90;;;;;;4993113;28;20231;-66
2022/06/24 07:30:29;;;;;;;;;;;20.70;99.90;;;;;;4975700;28;20649;-65
2022/06/24 07:32:56;;;;;;;;;;;20.80;99.90;;;;;;4991944;28;20238;-65
2022/06/24 07:35:25;;;;;;;;;;;21.00;99.90;;;;;;4993265;28;20204;-65
2022/06/24 07:38:13;;;;;;;;;;;21.10;99.90;;;;;;4992891;28;20594;-65
2022/06/24 07:40:41;;;;;;;;;;;21.30;99.90;;;;;;4993023;28;20253;-65
2022/06/24 07:43:08;;;;;;;;;;;21.20;99.90;;;;;;4992048;28;20211;-65
2022/06/24 07:45:39;;;;;;;;;;;21.20;99.90;;;;;;4992927;28;20204;-65
2022/06/24 07:48:06;;;;;;;;;;;21.20;99.90;;;;;;4987605;28;20228;-65
2022/06/24 07:50:34;;;;;;;;;;;21.10;99.90;;;;;;4970886;28;20631;-65
2022/06/24 07:53:02;;;;;;;;;;;21.30;99.90;;;;;;4973195;28;20670;-66
2022/06/24 07:58:15;;;;;;;;;;;22.00;99.90;;;;;;4973959;28;20646;-64
2022/06/24 08:00:44;;;;;;;;;;;22.20;99.90;;;;;;4973901;28;20645;-65
2022/06/24 08:03:12;;;;;;;;;;;22.10;99.90;;;;;;4972797;28;20231;-65
2022/06/24 08:05:40;;;;;;;;;;;22.10;99.90;;;;;;4973567;28;20208;-65
2022/06/24 08:08:08;;;;;;;;;;;21.90;99.90;;;;;;4973601;28;20208;-65
2022/06/24 08:10:36;;;;;;;;;;;21.70;99.90;;;;;;4973860;28;20738;-65
2022/06/24 08:13:04;;;;;;;;;;;21.50;99.90;;;;;;4972789;28;20208;-65
2022/06/24 08:15:32;;;;;;;;;;;21.40;99.90;;;;;;4973691;28;20291;-65
2022/06/24 08:18:01;;;;;;;;;;;21.40;99.90;;;;;;4969888;28;20239;-66
2022/06/24 08:20:29;;;;;;;;;;;21.30;99.90;;;;;;4965396;28;20232;-65
2022/06/24 08:22:56;;;;;;;;;;;21.30;99.90;;;;;;4991180;28;20204;-66
2022/06/24 08:25:24;;;;;;;;;;;21.20;99.90;;;;;;4992345;28;20203;-65
2022/06/24 08:27:52;;;;;;;;;;;21.10;99.90;;;;;;4991818;28;20629;-65
2022/06/24 08:30:20;;;;;;;;;;;21.10;99.90;;;;;;4992129;28;20258;-65
2022/06/24 08:32:47;;;;;;;;;;;21.00;99.90;;;;;;4990892;28;20208;-65
2022/06/24 08:35:17;;;;;;;;;;;21.00;99.90;;;;;;4991983;28;20681;-65
2022/06/24 08:37:56;;;;;;;;;;;21.00;99.90;;;;;;4991836;28;20262;-65
2022/06/24 08:40:25;;;;;;;;;;;21.00;99.90;;;;;;4991882;28;20200;-64
2022/06/24 08:42:53;;;;;;;;;;;21.00;99.90;;;;;;4990872;28;20207;-66
2022/06/24 08:45:22;;;;;;;;;;;21.00;99.90;;;;;;4991964;28;20200;-65
2022/06/24 08:47:50;;;;;;;;;;;21.00;99.90;;;;;;4987871;28;20736;-66
2022/06/24 08:50:19;;;;;;;;;;;20.90;99.90;;;;;;4978461;28;20269;-65
2022/06/24 08:52:48;;;;;;;;;;;20.90;99.90;;;;;;4974369;28;20236;-65
2022/06/24 08:55:21;;;;;;;;;;;20.90;99.90;;;;;;4973049;28;20196;-65
2022/06/24 08:57:49;;;;;;;;;;;20.80;99.90;;;;;;4973043;28;20621;-65
2022/06/24 09:00:18;;;;;;;;;;;20.80;99.90;;;;;;4973078;28;20199;-65
2022/06/24 09:02:47;;;;;;;;;;;20.70;99.90;;;;;;4972500;28;20662;-65
2022/06/24 09:05:16;;;;;;;;;;;20.70;99.90;;;;;;4972956;28;20207;-65
2022/06/24 09:07:45;;;;;;;;;;;20.70;99.90;;;;;;4972924;28;20204;-65
2022/06/24 09:10:13;;;;;;;;;;;20.70;99.90;;;;;;4972853;28;20567;-66
2022/06/24 09:12:43;;;;;;;;;;;20.70;99.90;;;;;;4972215;28;20287;-65
2022/06/24 09:15:12;;;;;;;;;;;20.70;99.90;;;;;;4972735;28;20278;-65
2022/06/24 09:17:40;;;;;;;;;;;20.70;99.90;;;;;;4972521;28;20200;-66
2022/06/24 09:20:09;;;;;;;;;;;20.80;99.90;;;;;;4969791;28;20686;-65
2022/06/24 09:23:03;;;;;;;;;;;21.00;99.90;;;;;;4985820;28;20687;-65
2022/06/24 09:25:41;;;;;;;;;;;21.10;99.90;;;;;;4991437;28;20191;-65
2022/06/24 09:28:10;;;;;;;;;;;21.30;99.90;;;;;;4991289;28;20286;-66
2022/06/24 09:30:38;;;;;;;;;;;21.50;99.90;;;;;;4991416;28;20250;-65
2022/06/24 09:33:06;;;;;;;;;;;21.80;99.90;;;;;;4994341;28;20196;-65
2022/06/24 09:35:59;;;;;;;;;;;21.80;99.90;;;;;;4995284;28;20664;-65
2022/06/24 09:38:28;;;;;;;;;;;21.90;99.90;;;;;;4995216;28;20635;-65
2022/06/24 09:41:00;;;;;;;;;;;21.90;99.90;;;;;;4994045;28;20211;-65
2022/06/24 09:43:30;;;;;;;;;;;21.80;99.90;;;;;;4994083;28;20212;-66
2022/06/24 09:45:58;;;;;;;;;;;21.90;99.90;;;;;;4994633;28;20298;-65
2022/06/24 09:48:28;;;;;;;;;;;21.90;99.90;;;;;;4983770;28;20193;-65
2022/06/24 09:50:56;;;;;;;;;;;22.00;99.90;;;;;;4980711;28;20199;-65
2022/06/24 09:53:24;;;;;;;;;;;22.20;99.90;;;;;;4993945;28;20204;-65
2022/06/24 09:55:54;;;;;;;;;;;22.20;99.90;;;;;;4994532;28;20306;-65
2022/06/24 09:58:22;;;;;;;;;;;22.40;99.90;;;;;;4994769;28;20299;-64
2022/06/24 10:00:50;;;;;;;;;;;22.40;99.90;;;;;;4994930;28;20235;-65
2022/06/24 10:03:18;;;;;;;;;;;22.40;99.90;;;;;;4994225;28;20200;-66
2022/06/24 10:05:47;;;;;;;;;;;22.50;99.90;;;;;;4994917;28;20287;-66
2022/06/24 10:08:15;;;;;;;;;;;22.50;99.90;;;;;;4994603;28;20250;-65
2022/06/24 10:10:45;;;;;;;;;;;22.60;99.90;;;;;;4995106;28;20239;-65
2022/06/24 10:13:22;;;;;;;;;;;22.60;99.90;;;;;;4993961;28;20235;-66
2022/06/24 10:15:50;;;;;;;;;;;22.60;99.90;;;;;;4994430;28;20199;-65
2022/06/24 10:18:20;;;;;;;;;;;22.70;99.90;;;;;;4989990;28;20289;-65
2022/06/24 10:20:49;;;;;;;;;;;22.70;99.90;;;;;;4974117;28;20211;-66
2022/06/24 10:23:38;;;;;;;;;;;22.90;99.90;;;;;;4974996;28;20227;-65
2022/06/24 10:26:09;;;;;;;;;;;23.30;99.90;;;;;;4970130;28;20263;-65
2022/06/24 10:28:51;;;;;;;;;;;23.60;99.90;;;;;;4975824;28;20255;-66
2022/06/24 10:31:21;;;;;;;;;;;23.90;99.90;;;;;;4975344;28;20700;-65
2022/06/24 10:33:56;;;;;;;;;;;24.10;99.90;;;;;;4974762;28;20207;-65
2022/06/24 10:36:30;;;;;;;;;;;24.70;99.90;;;;;;4975631;28;20209;-66
2022/06/24 10:39:07;;;;;;;;;;;25.30;99.90;;;;;;4975485;28;20390;-65
2022/06/24 10:41:38;;;;;;;;;;;25.80;99.90;;;;;;4975509;28;20204;-65
2022/06/24 10:44:21;;;;;;;;;;;26.30;99.90;;;;;;4973954;28;20259;-65
2022/06/24 10:47:10;;;;;;;;;;;26.60;99.90;;;;;;4975824;28;20207;-65
2022/06/24 10:50:01;;;;;;;;;;;26.90;99.90;;;;;;4967837;28;20328;-65
2022/06/24 10:52:33;;;;;;;;;;;27.20;99.90;;;;;;4968725;28;20204;-65
2022/06/24 10:55:23;;;;;;;;;;;27.50;99.90;;;;;;4975248;28;20228;-65
2022/06/24 10:57:52;;;;;;;;;;;27.60;99.90;;;;;;4975219;28;20200;-66
2022/06/24 11:00:20;;;;;;;;;;;27.30;99.90;;;;;;4975684;28;20250;-65
2022/06/24 11:02:51;;;;;;;;;;;27.20;99.90;;;;;;4974439;28;20231;-65
2022/06/24 11:05:23;;;;;;;;;;;26.80;99.90;;;;;;4975084;28;20204;-66
2022/06/24 11:07:51;;;;;;;;;;;26.40;99.90;;;;;;4974875;28;20200;-66
2022/06/24 11:10:19;;;;;;;;;;;26.50;99.90;;;;;;4975037;28;20266;-65
2022/06/24 11:12:48;;;;;;;;;;;26.90;99.90;;;;;;4974339;28;20247;-65
2022/06/24 11:15:16;;;;;;;;;;;27.30;99.90;;;;;;4974743;28;20260;-66
2022/06/24 11:17:44;;;;;;;;;;;27.90;99.90;;;;;;4974813;28;20643;-65
2022/06/24 11:20:13;;;;;;;;;;;28.10;99.90;;;;;;4974416;28;20243;-66
2022/06/24 11:22:42;;;;;;;;;;;27.70;99.90;;;;;;4974135;28;20208;-65
2022/06/24 11:25:11;;;;;;;;;;;27.30;99.90;;;;;;4974574;28;20279;-65
2022/06/24 11:27:39;;;;;;;;;;;27.10;99.90;;;;;;4974483;28;20204;-66
2022/06/24 11:30:07;;;;;;;;;;;27.30;99.90;;;;;;4974910;28;20251;-65
2022/06/24 11:32:52;;;;;;;;;;;27.80;99.90;;;;;;4974204;28;20207;-65
2022/06/24 11:35:22;;;;;;;;;;;28.30;99.90;;;;;;4974466;28;20590;-65
2022/06/24 11:37:50;;;;;;;;;;;28.80;99.90;;;;;;4974200;28;20196;-65
2022/06/24 11:40:21;;;;;;;;;;;29.30;99.90;;;;;;4974212;28;20235;-66
2022/06/24 11:42:48;;;;;;;;;;;29.50;99.90;;;;;;4973489;28;20231;-65
2022/06/24 11:45:30;;;;;;;;;;;29.40;99.70;;;;;;4974194;28;20208;-65
2022/06/24 11:47:58;;;;;;;;;;;29.50;99.70;;;;;;4971630;28;21852;-65
2022/06/24 11:50:27;;;;;;;;;;;29.70;99.90;;;;;;4966182;28;20247;-65
2022/06/24 11:52:56;;;;;;;;;;;30.20;99.50;;;;;;4992304;28;20207;-65
2022/06/24 11:55:28;;;;;;;;;;;30.50;98.50;;;;;;4992996;28;20228;-65
2022/06/24 11:57:57;;;;;;;;;;;30.50;97.80;;;;;;4992277;28;20673;-65
2022/06/24 12:00:25;;;;;;;;;;;30.20;97.60;;;;;;4992393;28;20239;-65
2022/06/24 12:02:54;;;;;;;;;;;30.00;97.80;;;;;;4991837;28;20199;-65
2022/06/24 12:05:23;;;;;;;;;;;30.20;98.00;;;;;;4992825;28;20669;-65
2022/06/24 12:07:53;;;;;;;;;;;30.60;97.10;;;;;;4991938;28;20284;-66
2022/06/24 12:10:21;;;;;;;;;;;31.10;95.40;;;;;;4992379;28;20196;-66
2022/06/24 12:12:59;;;;;;;;;;;31.00;97.00;;;;;;4977328;28;20236;-65
2022/06/24 12:15:28;;;;;;;;;;;30.70;95.10;;;;;;4966463;28;20636;-66
2022/06/24 12:17:56;;;;;;;;;;;30.70;96.10;;;;;;4984663;28;20270;-65
2022/06/24 12:20:24;;;;;;;;;;;31.10;95.40;;;;;;4991670;28;20231;-66
2022/06/24 12:23:11;;;;;;;;;;;31.40;94.70;;;;;;4991306;28;20191;-65
2022/06/24 12:25:40;;;;;;;;;;;31.50;94.80;;;;;;4992089;28;20736;-66
2022/06/24 12:28:12;;;;;;;;;;;31.80;93.90;;;;;;4991918;28;20199;-65
2022/06/24 12:30:40;;;;;;;;;;;31.50;93.80;;;;;;4991847;28;20208;-65
2022/06/24 12:33:11;;;;;;;;;;;31.50;94.10;;;;;;4991457;28;20235;-66
2022/06/24 12:35:41;;;;;;;;;;;31.60;94.10;;;;;;4992189;28;20239;-65
2022/06/24 12:38:18;;;;;;;;;;;31.50;94.10;;;;;;4992092;28;20672;-66
2022/06/24 12:40:47;;;;;;;;;;;31.90;93.40;;;;;;4991923;28;20246;-66
2022/06/24 12:43:15;;;;;;;;;;;32.10;92.10;;;;;;4965806;28;20248;-66
2022/06/24 12:45:44;;;;;;;;;;;32.40;91.70;;;;;;4982867;28;20199;-66
2022/06/24 12:50:58;;;;;;;;;;;33.10;92.00;;;;;;4992474;28;20192;-66
2022/06/24 12:53:26;;;;;;;;;;;33.30;90.90;;;;;;4990390;28;20254;-65
2022/06/24 12:55:55;;;;;;;;;;;33.20;90.20;;;;;;4991715;28;20302;-66
2022/06/24 12:58:23;;;;;;;;;;;32.80;88.50;;;;;;4991631;28;20336;-66
2022/06/24 13:00:51;;;;;;;;;;;32.60;89.90;;;;;;4991821;28;20216;-65
2022/06/24 13:03:20;;;;;;;;;;;32.10;89.30;;;;;;4990026;28;20187;-66
2022/06/24 13:05:48;;;;;;;;;;;32.40;90.10;;;;;;4991489;28;20203;-66
2022/06/24 13:08:16;;;;;;;;;;;32.90;89.50;;;;;;4991354;28;20691;-66
2022/06/24 13:10:44;;;;;;;;;;;33.20;89.30;;;;;;4991608;28;20303;-66
2022/06/24 13:13:13;;;;;;;;;;;33.00;89.10;;;;;;4974274;28;20175;-66
2022/06/24 13:15:41;;;;;;;;;;;33.30;89.10;;;;;;4987034;28;20233;-65
2022/06/24 13:18:09;;;;;;;;;;;32.80;87.30;;;;;;4991274;28;20274;-66
2022/06/24 13:20:36;;;;;;;;;;;32.10;88.40;;;;;;4991631;28;20716;-65
2022/06/24 13:23:04;;;;;;;;;;;32.10;89.30;;;;;;4990287;28;20183;-65
2022/06/24 13:25:32;;;;;;;;;;;31.90;89.00;;;;;;4991220;28;20204;-66
2022/06/24 13:28:00;;;;;;;;;;;31.50;89.10;;;;;;4991323;28;20207;-66
2022/06/24 13:30:29;;;;;;;;;;;31.60;90.20;;;;;;4991039;28;20228;-65
2022/06/24 13:32:57;;;;;;;;;;;31.60;89.50;;;;;;4990346;28;20645;-65
2022/06/24 13:35:24;;;;;;;;;;;31.50;89.30;;;;;;4991251;28;20254;-65
2022/06/24 13:37:52;;;;;;;;;;;31.60;88.60;;;;;;4991467;28;20219;-66
2022/06/24 13:40:20;;;;;;;;;;;32.20;88.80;;;;;;4991107;28;20227;-66
2022/06/24 13:42:47;;;;;;;;;;;32.30;89.10;;;;;;4983343;28;20196;-65
2022/06/24 13:45:15;;;;;;;;;;;31.90;89.20;;;;;;4968174;28;20270;-66
2022/06/24 13:47:44;;;;;;;;;;;31.60;90.10;;;;;;4972351;28;20204;-65
2022/06/24 13:50:12;;;;;;;;;;;31.20;91.40;;;;;;4972467;28;20301;-65
2022/06/24 13:52:40;;;;;;;;;;;31.10;90.40;;;;;;4971770;28;20263;-65
2022/06/24 13:55:08;;;;;;;;;;;31.20;90.80;;;;;;4972755;28;20208;-65
2022/06/24 13:57:36;;;;;;;;;;;31.20;91.70;;;;;;4971935;28;20204;-65
2022/06/24 14:00:06;;;;;;;;;;;31.40;90.50;;;;;;4972573;28;20311;-66
2022/06/24 14:02:33;;;;;;;;;;;31.50;90.20;;;;;;4971538;28;20495;-66
2022/06/24 14:05:03;;;;;;;;;;;31.80;90.20;;;;;;4972715;28;20077;-65
2022/06/24 14:07:30;;;;;;;;;;;32.40;90.50;;;;;;4972557;28;20200;-66
2022/06/24 14:09:59;;;;;;;;;;;32.60;88.80;;;;;;4971776;28;20224;-66
2022/06/24 14:12:46;;;;;;;;;;;32.70;88.20;;;;;;4970402;28;20269;-66
2022/06/24 14:15:15;;;;;;;;;;;32.80;87.90;;;;;;4980952;28;20223;-66
2022/06/24 14:17:43;;;;;;;;;;;32.40;87.70;;;;;;4990691;28;20195;-66
2022/06/24 14:20:13;;;;;;;;;;;32.10;89.20;;;;;;4993368;28;20548;-66
2022/06/24 14:24:31;;;;;;;;;;;31.70;89.40;;;;;;4993197;28;20265;-66
2022/06/24 14:25:30;;;;;;;;;;;31.20;90.20;;;;;;4994491;28;20203;-66
2022/06/24 14:27:57;;;;;;;;;;;30.70;90.30;;;;;;4994290;28;20238;-65
2022/06/24 14:30:25;;;;;;;;;;;30.30;90.40;;;;;;4994093;28;20231;-65
2022/06/24 14:32:53;;;;;;;;;;;29.90;91.20;;;;;;4993241;28;20239;-65
2022/06/24 14:35:22;;;;;;;;;;;29.70;90.50;;;;;;4994127;28;20258;-65
2022/06/24 14:40:35;;;;;;;;;;;29.40;91.40;;;;;;4994767;28;20227;-65
2022/06/24 14:43:17;;;;;;;;;;;29.20;91.30;;;;;;4982339;28;20286;-65
2022/06/24 14:45:45;;;;;;;;;;;29.00;91.70;;;;;;4972832;28;20573;-65
2022/06/24 14:48:13;;;;;;;;;;;28.80;91.60;;;;;;4975386;28;20254;-66
2022/06/24 14:50:42;;;;;;;;;;;28.80;92.00;;;;;;4975353;28;20204;-65